sensor_id;sensor_type;location;lat;lon;timestamp;temperature;humidity
11818;DHT22;5966;52.402;5.322;2023-03-03T00:02:43;2.60;99.90
11818;DHT22;5966;52.402;5.322;2023-03-03T00:05:13;2.60;99.90
11818;DHT22;5966;52.402;5.322;2023-03-03T00:07:43;2.60;99.90
11818;DHT22;5966;52.402;5.322;2023-03-03T00:10:12;2.50;99.90
11818;DHT22;5966;52.402;5.322;2023-03-03T00:12:46;2.50;99.90
11818;DHT22;5966;52.402;5.322;2023-03-03T00:15:16;2.50;99.90
11818;DHT22;5966;52.402;5.322;2023-03-03T00:17:44;2.50;99.90
11818;DHT22;5966;52.402;5.322;2023-03-03T00:20:31;2.40;99.90
11818;DHT22;5966;52.402;5.322;2023-03-03T00:23:13;2.40;99.90
11818;DHT22;5966;52.402;5.322;2023-03-03T00:25:43;2.40;99.90
11818;DHT22;5966;52.402;5.322;2023-03-03T00:28:24;2.40;99.90
11818;DHT22;5966;52.402;5.322;2023-03-03T00:30:54;2.30;99.90
11818;DHT22;5966;52.402;5.322;2023-03-03T00:33:29;2.30;99.90
11818;DHT22;5966;52.402;5.322;2023-03-03T00:36:28;2.20;99.90
11818;DHT22;5966;52.402;5.322;2023-03-03T00:39:25;2.20;99.90
11818;DHT22;5966;52.402;5.322;2023-03-03T00:41:56;2.10;99.90
11818;DHT22;5966;52.402;5.322;2023-03-03T00:44:43;2.10;99.90
11818;DHT22;5966;52.402;5.322;2023-03-03T00:47:27;2.00;99.90
11818;DHT22;5966;52.402;5.322;2023-03-03T00:50:23;1.90;99.90
11818;DHT22;5966;52.402;5.322;2023-03-03T00:53:10;1.70;99.90
11818;DHT22;5966;52.402;5.322;2023-03-03T00:55:58;1.70;99.90
11818;DHT22;5966;52.402;5.322;2023-03-03T00:58:38;1.70;99.90
11818;DHT22;5966;52.402;5.322;2023-03-03T01:01:08;1.70;99.90
11818;DHT22;5966;52.402;5.322;2023-03-03T01:03:55;1.60;99.90
11818;DHT22;5966;52.402;5.322;2023-03-03T01:06:26;1.60;99.90
11818;DHT22;5966;52.402;5.322;2023-03-03T01:08:56;1.70;99.90
11818;DHT22;5966;52.402;5.322;2023-03-03T01:11:26;1.60;99.90
11818;DHT22;5966;52.402;5.322;2023-03-03T01:13:57;1.70;99.90
11818;DHT22;5966;52.402;5.322;2023-03-03T01:16:26;1.70;99.90
11818;DHT22;5966;52.402;5.322;2023-03-03T01:18:55;1.60;99.90
11818;DHT22;5966;52.402;5.322;2023-03-03T01:21:23;1.60;99.90
11818;DHT22;5966;52.402;5.322;2023-03-03T01:23:52;1.60;99.90
11818;DHT22;5966;52.402;5.322;2023-03-03T01:26:21;1.60;99.90
11818;DHT22;5966;52.402;5.322;2023-03-03T01:28:51;1.60;99.90
11818;DHT22;5966;52.402;5.322;2023-03-03T01:31:19;1.60;99.90
11818;DHT22;5966;52.402;5.322;2023-03-03T01:33:47;1.60;99.90
11818;DHT22;5966;52.402;5.322;2023-03-03T01:36:15;1.60;99.90
11818;DHT22;5966;52.402;5.322;2023-03-03T01:38:43;1.60;99.90
11818;DHT22;5966;52.402;5.322;2023-03-03T01:41:11;1.60;99.90
11818;DHT22;5966;52.402;5.322;2023-03-03T01:43:44;1.70;99.90
11818;DHT22;5966;52.402;5.322;2023-03-03T01:46:43;1.60;99.90
11818;DHT22;5966;52.402;5.322;2023-03-03T01:49:17;1.60;99.90
11818;DHT22;5966;52.402;5.322;2023-03-03T01:51:53;1.60;99.90
11818;DHT22;5966;52.402;5.322;2023-03-03T01:54:26;1.60;99.90
11818;DHT22;5966;52.402;5.322;2023-03-03T01:57:00;1.60;99.90
11818;DHT22;5966;52.402;5.322;2023-03-03T01:59:36;1.70;99.90
11818;DHT22;5966;52.402;5.322;2023-03-03T02:02:08;1.60;99.90
11818;DHT22;5966;52.402;5.322;2023-03-03T02:04:36;1.60;99.90
11818;DHT22;5966;52.402;5.322;2023-03-03T02:07:09;1.60;99.90
11818;DHT22;5966;52.402;5.322;2023-03-03T02:09:48;1.60;99.90
11818;DHT22;5966;52.402;5.322;2023-03-03T02:12:25;1.60;99.90
11818;DHT22;5966;52.402;5.322;2023-03-03T02:14:57;1.60;99.90
11818;DHT22;5966;52.402;5.322;2023-03-03T02:17:26;1.50;99.90
11818;DHT22;5966;52.402;5.322;2023-03-03T02:20:00;1.50;99.90
11818;DHT22;5966;52.402;5.322;2023-03-03T02:22:34;1.50;99.90
11818;DHT22;5966;52.402;5.322;2023-03-03T02:25:07;1.40;99.90
11818;DHT22;5966;52.402;5.322;2023-03-03T02:27:41;1.40;99.90
11818;DHT22;5966;52.402;5.322;2023-03-03T02:30:14;1.40;99.90
11818;DHT22;5966;52.402;5.322;2023-03-03T02:32:45;1.40;99.90
11818;DHT22;5966;52.402;5.322;2023-03-03T02:35:33;1.40;99.90
11818;DHT22;5966;52.402;5.322;2023-03-03T02:38:09;1.40;99.90
11818;DHT22;5966;52.402;5.322;2023-03-03T02:40:44;1.40;99.90
11818;DHT22;5966;52.402;5.322;2023-03-03T02:43:16;1.50;99.90
11818;DHT22;5966;52.402;5.322;2023-03-03T02:45:46;1.50;99.90
11818;DHT22;5966;52.402;5.322;2023-03-03T02:48:14;1.50;99.90
11818;DHT22;5966;52.402;5.322;2023-03-03T02:50:42;1.50;99.90
11818;DHT22;5966;52.402;5.322;2023-03-03T02:53:13;1.50;99.90
11818;DHT22;5966;52.402;5.322;2023-03-03T02:55:42;1.40;99.90
11818;DHT22;5966;52.402;5.322;2023-03-03T02:58:10;1.40;99.90
11818;DHT22;5966;52.402;5.322;2023-03-03T03:00:41;1.40;99.90
11818;DHT22;5966;52.402;5.322;2023-03-03T03:03:13;1.50;99.90
11818;DHT22;5966;52.402;5.322;2023-03-03T03:05:42;1.50;99.90
11818;DHT22;5966;52.402;5.322;2023-03-03T03:08:13;1.40;99.90
11818;DHT22;5966;52.402;5.322;2023-03-03T03:10:41;1.50;99.90
11818;DHT22;5966;52.402;5.322;2023-03-03T03:13:12;1.50;99.90
11818;DHT22;5966;52.402;5.322;2023-03-03T03:15:46;1.50;99.90
11818;DHT22;5966;52.402;5.322;2023-03-03T03:18:16;1.50;99.90
11818;DHT22;5966;52.402;5.322;2023-03-03T03:20:44;1.50;99.90
11818;DHT22;5966;52.402;5.322;2023-03-03T03:23:14;1.60;99.90
11818;DHT22;5966;52.402;5.322;2023-03-03T03:25:44;1.60;99.90
11818;DHT22;5966;52.402;5.322;2023-03-03T03:28:15;1.60;99.90
11818;DHT22;5966;52.402;5.322;2023-03-03T03:30:51;1.60;99.90
11818;DHT22;5966;52.402;5.322;2023-03-03T03:33:20;1.60;99.90
11818;DHT22;5966;52.402;5.322;2023-03-03T03:35:49;1.50;99.90
11818;DHT22;5966;52.402;5.322;2023-03-03T03:38:18;1.50;99.90
11818;DHT22;5966;52.402;5.322;2023-03-03T03:40:47;1.50;99.90
11818;DHT22;5966;52.402;5.322;2023-03-03T03:43:15;1.50;99.90
11818;DHT22;5966;52.402;5.322;2023-03-03T03:45:45;1.60;99.90
11818;DHT22;5966;52.402;5.322;2023-03-03T03:48:13;1.60;99.90
11818;DHT22;5966;52.402;5.322;2023-03-03T03:50:45;1.60;99.90
11818;DHT22;5966;52.402;5.322;2023-03-03T03:53:13;1.60;99.90
11818;DHT22;5966;52.402;5.322;2023-03-03T03:55:41;1.70;99.90
11818;DHT22;5966;52.402;5.322;2023-03-03T03:58:11;1.70;99.90
11818;DHT22;5966;52.402;5.322;2023-03-03T04:00:40;1.70;99.90
11818;DHT22;5966;52.402;5.322;2023-03-03T04:03:11;1.60;99.90
11818;DHT22;5966;52.402;5.322;2023-03-03T04:05:41;1.70;99.90
11818;DHT22;5966;52.402;5.322;2023-03-03T04:08:09;1.60;99.90
11818;DHT22;5966;52.402;5.322;2023-03-03T04:10:38;1.60;99.90
11818;DHT22;5966;52.402;5.322;2023-03-03T04:13:07;1.60;99.90
11818;DHT22;5966;52.402;5.322;2023-03-03T04:15:42;1.60;99.90
11818;DHT22;5966;52.402;5.322;2023-03-03T04:18:11;1.70;99.90
11818;DHT22;5966;52.402;5.322;2023-03-03T04:20:39;1.70;99.90
11818;DHT22;5966;52.402;5.322;2023-03-03T04:23:07;1.60;99.90
11818;DHT22;5966;52.402;5.322;2023-03-03T04:25:35;1.70;99.90
11818;DHT22;5966;52.402;5.322;2023-03-03T04:28:03;1.80;99.90
11818;DHT22;5966;52.402;5.322;2023-03-03T04:30:31;1.70;99.90
11818;DHT22;5966;52.402;5.322;2023-03-03T04:32:59;1.70;99.90
11818;DHT22;5966;52.402;5.322;2023-03-03T04:35:29;1.80;99.90
11818;DHT22;5966;52.402;5.322;2023-03-03T04:37:57;1.80;99.90
11818;DHT22;5966;52.402;5.322;2023-03-03T04:40:25;1.80;99.90
11818;DHT22;5966;52.402;5.322;2023-03-03T04:42:53;1.90;99.90
11818;DHT22;5966;52.402;5.322;2023-03-03T04:45:21;1.90;99.90
11818;DHT22;5966;52.402;5.322;2023-03-03T04:47:49;1.90;99.90
11818;DHT22;5966;52.402;5.322;2023-03-03T04:50:17;1.90;99.90
11818;DHT22;5966;52.402;5.322;2023-03-03T04:52:47;2.00;99.90
11818;DHT22;5966;52.402;5.322;2023-03-03T04:55:15;2.10;99.90
11818;DHT22;5966;52.402;5.322;2023-03-03T04:57:43;2.10;99.90
11818;DHT22;5966;52.402;5.322;2023-03-03T05:00:12;2.10;99.90
11818;DHT22;5966;52.402;5.322;2023-03-03T05:02:41;2.20;99.90
11818;DHT22;5966;52.402;5.322;2023-03-03T05:05:09;2.20;99.90
11818;DHT22;5966;52.402;5.322;2023-03-03T05:07:39;2.20;99.90
11818;DHT22;5966;52.402;5.322;2023-03-03T05:10:12;2.20;99.90
11818;DHT22;5966;52.402;5.322;2023-03-03T05:12:41;2.20;99.90
11818;DHT22;5966;52.402;5.322;2023-03-03T05:15:11;2.20;99.90
11818;DHT22;5966;52.402;5.322;2023-03-03T05:17:39;2.20;99.90
11818;DHT22;5966;52.402;5.322;2023-03-03T05:20:12;2.20;99.90
11818;DHT22;5966;52.402;5.322;2023-03-03T05:22:42;2.20;99.90
11818;DHT22;5966;52.402;5.322;2023-03-03T05:25:11;2.20;99.90
11818;DHT22;5966;52.402;5.322;2023-03-03T05:27:39;2.20;99.90
11818;DHT22;5966;52.402;5.322;2023-03-03T05:30:09;2.10;99.90
11818;DHT22;5966;52.402;5.322;2023-03-03T05:32:38;2.10;99.90
11818;DHT22;5966;52.402;5.322;2023-03-03T05:35:06;2.10;99.90
11818;DHT22;5966;52.402;5.322;2023-03-03T05:37:35;2.10;99.90
11818;DHT22;5966;52.402;5.322;2023-03-03T05:40:20;2.10;99.90
11818;DHT22;5966;52.402;5.322;2023-03-03T05:42:48;2.20;99.90
11818;DHT22;5966;52.402;5.322;2023-03-03T05:45:16;2.20;99.90
11818;DHT22;5966;52.402;5.322;2023-03-03T05:47:46;2.20;99.90
11818;DHT22;5966;52.402;5.322;2023-03-03T05:50:15;2.20;99.90
11818;DHT22;5966;52.402;5.322;2023-03-03T05:52:43;2.20;99.90
11818;DHT22;5966;52.402;5.322;2023-03-03T05:55:11;2.20;99.90
11818;DHT22;5966;52.402;5.322;2023-03-03T05:57:41;2.20;99.90
11818;DHT22;5966;52.402;5.322;2023-03-03T06:00:12;2.20;99.90
11818;DHT22;5966;52.402;5.322;2023-03-03T06:02:41;2.20;99.90
11818;DHT22;5966;52.402;5.322;2023-03-03T06:05:10;2.20;99.90
11818;DHT22;5966;52.402;5.322;2023-03-03T06:07:39;2.30;99.90
11818;DHT22;5966;52.402;5.322;2023-03-03T06:10:10;2.20;99.90
11818;DHT22;5966;52.402;5.322;2023-03-03T06:12:39;2.10;99.90
11818;DHT22;5966;52.402;5.322;2023-03-03T06:15:09;2.10;99.90
11818;DHT22;5966;52.402;5.322;2023-03-03T06:17:37;2.10;99.90
11818;DHT22;5966;52.402;5.322;2023-03-03T06:20:06;2.10;99.90
11818;DHT22;5966;52.402;5.322;2023-03-03T06:22:36;2.10;99.90
11818;DHT22;5966;52.402;5.322;2023-03-03T06:25:04;2.10;99.90
11818;DHT22;5966;52.402;5.322;2023-03-03T06:27:32;2.10;99.90
11818;DHT22;5966;52.402;5.322;2023-03-03T06:30:02;2.10;99.90
11818;DHT22;5966;52.402;5.322;2023-03-03T06:32:31;2.10;99.90
11818;DHT22;5966;52.402;5.322;2023-03-03T06:34:59;2.10;99.90
11818;DHT22;5966;52.402;5.322;2023-03-03T06:37:27;2.20;99.90
11818;DHT22;5966;52.402;5.322;2023-03-03T06:39:55;2.20;99.90
11818;DHT22;5966;52.402;5.322;2023-03-03T06:42:25;2.20;99.90
11818;DHT22;5966;52.402;5.322;2023-03-03T06:44:54;2.10;99.90
11818;DHT22;5966;52.402;5.322;2023-03-03T06:47:23;2.10;99.90
11818;DHT22;5966;52.402;5.322;2023-03-03T06:49:51;2.10;99.90
11818;DHT22;5966;52.402;5.322;2023-03-03T06:52:24;2.10;99.90
11818;DHT22;5966;52.402;5.322;2023-03-03T06:54:54;2.20;99.90
11818;DHT22;5966;52.402;5.322;2023-03-03T06:57:25;2.20;99.90
11818;DHT22;5966;52.402;5.322;2023-03-03T06:59:57;2.20;99.90
11818;DHT22;5966;52.402;5.322;2023-03-03T07:02:27;2.20;99.90
11818;DHT22;5966;52.402;5.322;2023-03-03T07:04:55;2.20;99.90
11818;DHT22;5966;52.402;5.322;2023-03-03T07:07:24;2.20;99.90
11818;DHT22;5966;52.402;5.322;2023-03-03T07:09:54;2.30;99.90
11818;DHT22;5966;52.402;5.322;2023-03-03T07:12:25;2.30;99.90
11818;DHT22;5966;52.402;5.322;2023-03-03T07:15:00;2.20;99.90
11818;DHT22;5966;52.402;5.322;2023-03-03T07:17:41;2.20;99.90
11818;DHT22;5966;52.402;5.322;2023-03-03T07:20:17;2.30;99.90
11818;DHT22;5966;52.402;5.322;2023-03-03T07:22:54;2.30;99.90
11818;DHT22;5966;52.402;5.322;2023-03-03T07:25:34;2.30;99.90
11818;DHT22;5966;52.402;5.322;2023-03-03T07:28:41;2.40;99.90
11818;DHT22;5966;52.402;5.322;2023-03-03T07:31:26;2.40;99.90
11818;DHT22;5966;52.402;5.322;2023-03-03T07:33:59;2.50;99.90
11818;DHT22;5966;52.402;5.322;2023-03-03T07:36:30;2.50;99.90
11818;DHT22;5966;52.402;5.322;2023-03-03T07:38:59;2.40;99.90
11818;DHT22;5966;52.402;5.322;2023-03-03T07:41:27;2.40;99.90
11818;DHT22;5966;52.402;5.322;2023-03-03T07:44:01;2.40;99.90
11818;DHT22;5966;52.402;5.322;2023-03-03T07:46:36;2.40;99.90
11818;DHT22;5966;52.402;5.322;2023-03-03T07:49:20;2.40;99.90
11818;DHT22;5966;52.402;5.322;2023-03-03T07:51:52;2.40;99.90
11818;DHT22;5966;52.402;5.322;2023-03-03T07:54:30;2.50;99.90
11818;DHT22;5966;52.402;5.322;2023-03-03T07:57:11;2.60;99.90
11818;DHT22;5966;52.402;5.322;2023-03-03T07:59:45;2.60;99.90
11818;DHT22;5966;52.402;5.322;2023-03-03T08:02:37;2.70;99.90
11818;DHT22;5966;52.402;5.322;2023-03-03T08:05:27;2.70;99.90
11818;DHT22;5966;52.402;5.322;2023-03-03T08:08:11;2.80;99.90
11818;DHT22;5966;52.402;5.322;2023-03-03T08:10:45;2.70;99.90
11818;DHT22;5966;52.402;5.322;2023-03-03T08:13:17;2.70;99.90
11818;DHT22;5966;52.402;5.322;2023-03-03T08:15:48;2.80;99.90
11818;DHT22;5966;52.402;5.322;2023-03-03T08:18:22;2.90;99.90
11818;DHT22;5966;52.402;5.322;2023-03-03T08:20:54;3.00;99.90
11818;DHT22;5966;52.402;5.322;2023-03-03T08:23:23;3.00;99.90
11818;DHT22;5966;52.402;5.322;2023-03-03T08:25:51;3.00;99.90
11818;DHT22;5966;52.402;5.322;2023-03-03T08:28:20;2.90;99.90
11818;DHT22;5966;52.402;5.322;2023-03-03T08:30:48;2.90;99.90
11818;DHT22;5966;52.402;5.322;2023-03-03T08:33:17;3.10;99.90
11818;DHT22;5966;52.402;5.322;2023-03-03T08:35:45;3.10;99.90
11818;DHT22;5966;52.402;5.322;2023-03-03T08:38:16;3.20;99.90
11818;DHT22;5966;52.402;5.322;2023-03-03T08:40:45;3.20;99.90
11818;DHT22;5966;52.402;5.322;2023-03-03T08:43:13;3.30;99.90
11818;DHT22;5966;52.402;5.322;2023-03-03T08:45:44;3.30;99.90
11818;DHT22;5966;52.402;5.322;2023-03-03T08:48:13;3.30;99.90
11818;DHT22;5966;52.402;5.322;2023-03-03T08:50:41;3.40;99.90
11818;DHT22;5966;52.402;5.322;2023-03-03T08:53:10;3.60;99.90
11818;DHT22;5966;52.402;5.322;2023-03-03T08:55:40;3.70;99.90
11818;DHT22;5966;52.402;5.322;2023-03-03T08:58:08;3.80;99.90
11818;DHT22;5966;52.402;5.322;2023-03-03T09:00:36;3.80;99.90
11818;DHT22;5966;52.402;5.322;2023-03-03T09:03:05;3.80;99.90
11818;DHT22;5966;52.402;5.322;2023-03-03T09:05:35;3.60;99.90
11818;DHT22;5966;52.402;5.322;2023-03-03T09:08:04;3.60;99.90
11818;DHT22;5966;52.402;5.322;2023-03-03T09:10:32;3.60;99.90
11818;DHT22;5966;52.402;5.322;2023-03-03T09:13:09;3.70;99.90
11818;DHT22;5966;52.402;5.322;2023-03-03T09:15:38;3.70;99.90
11818;DHT22;5966;52.402;5.322;2023-03-03T09:18:13;3.70;99.90
11818;DHT22;5966;52.402;5.322;2023-03-03T09:20:43;3.70;99.90
11818;DHT22;5966;52.402;5.322;2023-03-03T09:23:33;3.70;99.90
11818;DHT22;5966;52.402;5.322;2023-03-03T09:26:23;3.70;99.90
11818;DHT22;5966;52.402;5.322;2023-03-03T09:28:59;3.70;99.90
11818;DHT22;5966;52.402;5.322;2023-03-03T09:31:35;3.80;99.90
11818;DHT22;5966;52.402;5.322;2023-03-03T09:34:14;3.90;99.90
11818;DHT22;5966;52.402;5.322;2023-03-03T09:36:43;4.00;99.90
11818;DHT22;5966;52.402;5.322;2023-03-03T09:39:17;4.10;99.90
11818;DHT22;5966;52.402;5.322;2023-03-03T09:42:18;4.00;99.90
11818;DHT22;5966;52.402;5.322;2023-03-03T09:45:10;4.10;99.90
11818;DHT22;5966;52.402;5.322;2023-03-03T09:47:57;4.10;99.90
11818;DHT22;5966;52.402;5.322;2023-03-03T09:50:33;4.10;99.90
11818;DHT22;5966;52.402;5.322;2023-03-03T09:53:12;4.20;99.90
11818;DHT22;5966;52.402;5.322;2023-03-03T09:55:50;4.20;99.90
11818;DHT22;5966;52.402;5.322;2023-03-03T09:58:30;4.30;99.90
11818;DHT22;5966;52.402;5.322;2023-03-03T10:01:13;4.40;99.90
11818;DHT22;5966;52.402;5.322;2023-03-03T10:06:46;4.30;99.90
11818;DHT22;5966;52.402;5.322;2023-03-03T10:09:39;4.40;99.90
11818;DHT22;5966;52.402;5.322;2023-03-03T10:12:14;4.40;99.90
11818;DHT22;5966;52.402;5.322;2023-03-03T10:15:03;4.40;99.90
11818;DHT22;5966;52.402;5.322;2023-03-03T10:17:49;4.50;99.90
11818;DHT22;5966;52.402;5.322;2023-03-03T10:20:32;4.60;99.90
11818;DHT22;5966;52.402;5.322;2023-03-03T10:23:23;4.60;99.90
11818;DHT22;5966;52.402;5.322;2023-03-03T10:26:04;4.70;99.90
11818;DHT22;5966;52.402;5.322;2023-03-03T10:29:14;4.70;99.90
11818;DHT22;5966;52.402;5.322;2023-03-03T10:31:58;4.70;99.90
11818;DHT22;5966;52.402;5.322;2023-03-03T10:34:48;4.70;99.90
11818;DHT22;5966;52.402;5.322;2023-03-03T10:37:27;4.70;99.90
11818;DHT22;5966;52.402;5.322;2023-03-03T10:40:19;4.80;99.90
11818;DHT22;5966;52.402;5.322;2023-03-03T10:43:03;4.90;99.90
11818;DHT22;5966;52.402;5.322;2023-03-03T10:46:01;5.10;99.90
11818;DHT22;5966;52.402;5.322;2023-03-03T10:48:45;5.20;99.90
11818;DHT22;5966;52.402;5.322;2023-03-03T10:51:29;5.40;99.90
11818;DHT22;5966;52.402;5.322;2023-03-03T10:54:11;5.50;99.90
11818;DHT22;5966;52.402;5.322;2023-03-03T10:56:48;5.70;99.90
11818;DHT22;5966;52.402;5.322;2023-03-03T10:59:36;5.70;99.90
11818;DHT22;5966;52.402;5.322;2023-03-03T11:02:12;5.70;99.90
11818;DHT22;5966;52.402;5.322;2023-03-03T11:04:58;5.70;99.90
11818;DHT22;5966;52.402;5.322;2023-03-03T11:07:34;5.60;99.90
11818;DHT22;5966;52.402;5.322;2023-03-03T11:10:17;5.60;99.90
11818;DHT22;5966;52.402;5.322;2023-03-03T11:12:55;5.60;99.90
11818;DHT22;5966;52.402;5.322;2023-03-03T11:15:39;5.60;99.90
11818;DHT22;5966;52.402;5.322;2023-03-03T11:18:32;5.70;99.90
11818;DHT22;5966;52.402;5.322;2023-03-03T11:21:08;5.80;99.90
11818;DHT22;5966;52.402;5.322;2023-03-03T11:23:54;5.90;99.90
11818;DHT22;5966;52.402;5.322;2023-03-03T11:26:36;6.00;99.90
11818;DHT22;5966;52.402;5.322;2023-03-03T11:29:23;6.10;99.90
11818;DHT22;5966;52.402;5.322;2023-03-03T11:31:58;6.20;99.90
11818;DHT22;5966;52.402;5.322;2023-03-03T11:37:25;6.20;99.90
11818;DHT22;5966;52.402;5.322;2023-03-03T11:40:03;6.10;99.90
11818;DHT22;5966;52.402;5.322;2023-03-03T11:42:45;6.10;99.90
11818;DHT22;5966;52.402;5.322;2023-03-03T11:45:18;6.10;99.90
11818;DHT22;5966;52.402;5.322;2023-03-03T11:47:53;6.10;99.90
11818;DHT22;5966;52.402;5.322;2023-03-03T11:50:25;6.10;99.90
11818;DHT22;5966;52.402;5.322;2023-03-03T11:53:06;6.10;99.90
11818;DHT22;5966;52.402;5.322;2023-03-03T11:55:38;6.20;99.90
11818;DHT22;5966;52.402;5.322;2023-03-03T11:58:11;6.20;99.90
11818;DHT22;5966;52.402;5.322;2023-03-03T12:00:44;6.10;99.90
11818;DHT22;5966;52.402;5.322;2023-03-03T12:03:24;6.10;99.90
11818;DHT22;5966;52.402;5.322;2023-03-03T12:06:02;6.10;99.90
11818;DHT22;5966;52.402;5.322;2023-03-03T12:08:40;6.30;99.90
11818;DHT22;5966;52.402;5.322;2023-03-03T12:11:17;6.40;99.90
11818;DHT22;5966;52.402;5.322;2023-03-03T12:13:52;6.50;99.90
11818;DHT22;5966;52.402;5.322;2023-03-03T12:16:31;6.60;99.90
11818;DHT22;5966;52.402;5.322;2023-03-03T12:19:14;6.60;99.90
11818;DHT22;5966;52.402;5.322;2023-03-03T12:22:07;6.50;99.90
11818;DHT22;5966;52.402;5.322;2023-03-03T12:24:54;6.50;99.90
11818;DHT22;5966;52.402;5.322;2023-03-03T12:27:30;6.60;99.90
11818;DHT22;5966;52.402;5.322;2023-03-03T12:30:15;6.60;99.90
11818;DHT22;5966;52.402;5.322;2023-03-03T12:33:00;6.70;99.90
11818;DHT22;5966;52.402;5.322;2023-03-03T12:35:35;6.80;99.90
11818;DHT22;5966;52.402;5.322;2023-03-03T12:38:12;6.80;99.90
11818;DHT22;5966;52.402;5.322;2023-03-03T12:40:47;6.80;99.90
11818;DHT22;5966;52.402;5.322;2023-03-03T12:46:15;6.90;99.90
11818;DHT22;5966;52.402;5.322;2023-03-03T12:48:46;6.90;99.90
11818;DHT22;5966;52.402;5.322;2023-03-03T12:51:25;6.90;99.90
11818;DHT22;5966;52.402;5.322;2023-03-03T12:54:17;6.90;99.90
11818;DHT22;5966;52.402;5.322;2023-03-03T12:56:49;6.90;99.90
11818;DHT22;5966;52.402;5.322;2023-03-03T12:59:26;6.90;99.90
11818;DHT22;5966;52.402;5.322;2023-03-03T13:02:10;7.00;99.90
11818;DHT22;5966;52.402;5.322;2023-03-03T13:04:49;7.00;99.90
11818;DHT22;5966;52.402;5.322;2023-03-03T13:07:21;7.00;99.90
11818;DHT22;5966;52.402;5.322;2023-03-03T13:10:02;7.00;99.90
11818;DHT22;5966;52.402;5.322;2023-03-03T13:12:35;7.00;99.90
11818;DHT22;5966;52.402;5.322;2023-03-03T13:15:14;7.00;99.90
11818;DHT22;5966;52.402;5.322;2023-03-03T13:17:51;7.00;99.90
11818;DHT22;5966;52.402;5.322;2023-03-03T13:20:32;6.90;99.90
11818;DHT22;5966;52.402;5.322;2023-03-03T13:23:06;7.00;99.90
11818;DHT22;5966;52.402;5.322;2023-03-03T13:25:44;7.00;99.90
11818;DHT22;5966;52.402;5.322;2023-03-03T13:28:20;7.00;99.90
11818;DHT22;5966;52.402;5.322;2023-03-03T13:30:55;7.00;99.90
11818;DHT22;5966;52.402;5.322;2023-03-03T13:33:26;7.10;99.90
11818;DHT22;5966;52.402;5.322;2023-03-03T13:35:58;7.10;99.90
11818;DHT22;5966;52.402;5.322;2023-03-03T13:38:29;7.10;99.90
11818;DHT22;5966;52.402;5.322;2023-03-03T13:41:04;7.10;99.90
11818;DHT22;5966;52.402;5.322;2023-03-03T13:44:05;7.00;99.90
11818;DHT22;5966;52.402;5.322;2023-03-03T13:46:41;6.90;99.90
11818;DHT22;5966;52.402;5.322;2023-03-03T13:49:23;6.70;99.90
11818;DHT22;5966;52.402;5.322;2023-03-03T13:52:00;6.60;99.90
11818;DHT22;5966;52.402;5.322;2023-03-03T13:54:57;6.60;99.90
11818;DHT22;5966;52.402;5.322;2023-03-03T13:57:57;6.60;99.90
11818;DHT22;5966;52.402;5.322;2023-03-03T14:00:42;6.60;99.90
11818;DHT22;5966;52.402;5.322;2023-03-03T14:03:25;6.60;99.90
11818;DHT22;5966;52.402;5.322;2023-03-03T14:06:02;6.60;99.90
11818;DHT22;5966;52.402;5.322;2023-03-03T14:08:48;6.70;99.90
11818;DHT22;5966;52.402;5.322;2023-03-03T14:11:22;6.70;99.90
11818;DHT22;5966;52.402;5.322;2023-03-03T14:13:58;6.70;99.90
11818;DHT22;5966;52.402;5.322;2023-03-03T14:16:42;6.70;99.90
11818;DHT22;5966;52.402;5.322;2023-03-03T14:19:17;6.70;99.90
11818;DHT22;5966;52.402;5.322;2023-03-03T14:21:55;6.70;99.90
11818;DHT22;5966;52.402;5.322;2023-03-03T14:24:29;6.70;99.90
11818;DHT22;5966;52.402;5.322;2023-03-03T14:26:58;6.60;99.90
11818;DHT22;5966;52.402;5.322;2023-03-03T14:29:31;6.60;99.90
11818;DHT22;5966;52.402;5.322;2023-03-03T14:32:01;6.60;99.90
11818;DHT22;5966;52.402;5.322;2023-03-03T14:34:56;6.60;99.90
11818;DHT22;5966;52.402;5.322;2023-03-03T14:37:27;6.70;99.90
11818;DHT22;5966;52.402;5.322;2023-03-03T14:40:15;6.70;99.90
11818;DHT22;5966;52.402;5.322;2023-03-03T14:42:47;6.60;99.90
11818;DHT22;5966;52.402;5.322;2023-03-03T14:45:28;6.70;99.90
11818;DHT22;5966;52.402;5.322;2023-03-03T14:47:57;6.70;99.90
11818;DHT22;5966;52.402;5.322;2023-03-03T14:50:33;6.70;99.90
11818;DHT22;5966;52.402;5.322;2023-03-03T14:53:12;6.80;99.90
11818;DHT22;5966;52.402;5.322;2023-03-03T14:55:43;6.80;99.90
11818;DHT22;5966;52.402;5.322;2023-03-03T14:58:30;6.70;99.90
11818;DHT22;5966;52.402;5.322;2023-03-03T15:01:23;6.70;99.90
11818;DHT22;5966;52.402;5.322;2023-03-03T15:04:01;6.60;99.90
11818;DHT22;5966;52.402;5.322;2023-03-03T15:06:40;6.60;99.90
11818;DHT22;5966;52.402;5.322;2023-03-03T15:09:33;6.60;99.90
11818;DHT22;5966;52.402;5.322;2023-03-03T15:12:19;6.60;99.90
11818;DHT22;5966;52.402;5.322;2023-03-03T15:14:49;6.60;99.90
11818;DHT22;5966;52.402;5.322;2023-03-03T15:17:30;6.70;99.90
11818;DHT22;5966;52.402;5.322;2023-03-03T15:20:17;6.70;99.90
11818;DHT22;5966;52.402;5.322;2023-03-03T15:22:50;6.70;99.90
11818;DHT22;5966;52.402;5.322;2023-03-03T15:25:25;6.80;99.90
11818;DHT22;5966;52.402;5.322;2023-03-03T15:28:20;6.80;99.90
11818;DHT22;5966;52.402;5.322;2023-03-03T15:30:54;6.80;99.90
11818;DHT22;5966;52.402;5.322;2023-03-03T15:33:28;6.80;99.90
11818;DHT22;5966;52.402;5.322;2023-03-03T15:36:06;6.80;99.90
11818;DHT22;5966;52.402;5.322;2023-03-03T15:38:45;6.80;99.90
11818;DHT22;5966;52.402;5.322;2023-03-03T15:41:25;6.70;99.90
11818;DHT22;5966;52.402;5.322;2023-03-03T15:44:02;6.70;99.90
11818;DHT22;5966;52.402;5.322;2023-03-03T15:46:40;6.70;99.90
11818;DHT22;5966;52.402;5.322;2023-03-03T15:49:25;6.70;99.90
11818;DHT22;5966;52.402;5.322;2023-03-03T15:52:11;6.70;99.90
11818;DHT22;5966;52.402;5.322;2023-03-03T15:55:00;6.70;99.90
11818;DHT22;5966;52.402;5.322;2023-03-03T15:57:39;6.70;99.90
11818;DHT22;5966;52.402;5.322;2023-03-03T16:00:36;6.70;99.90
11818;DHT22;5966;52.402;5.322;2023-03-03T16:03:11;6.70;99.90
11818;DHT22;5966;52.402;5.322;2023-03-03T16:05:48;6.70;99.90
11818;DHT22;5966;52.402;5.322;2023-03-03T16:08:23;6.70;99.90
11818;DHT22;5966;52.402;5.322;2023-03-03T16:11:03;6.70;99.90
11818;DHT22;5966;52.402;5.322;2023-03-03T16:13:44;6.70;99.90
11818;DHT22;5966;52.402;5.322;2023-03-03T16:16:23;6.70;99.90
11818;DHT22;5966;52.402;5.322;2023-03-03T16:19:02;6.70;99.90
11818;DHT22;5966;52.402;5.322;2023-03-03T16:21:53;6.70;99.90
11818;DHT22;5966;52.402;5.322;2023-03-03T16:24:32;6.70;99.90
11818;DHT22;5966;52.402;5.322;2023-03-03T16:27:12;6.60;99.90
11818;DHT22;5966;52.402;5.322;2023-03-03T16:29:52;6.60;99.90
11818;DHT22;5966;52.402;5.322;2023-03-03T16:32:27;6.60;99.90
11818;DHT22;5966;52.402;5.322;2023-03-03T16:35:04;6.70;99.90
11818;DHT22;5966;52.402;5.322;2023-03-03T16:37:46;6.70;99.90
11818;DHT22;5966;52.402;5.322;2023-03-03T16:40:19;6.70;99.90
11818;DHT22;5966;52.402;5.322;2023-03-03T16:42:58;6.60;99.90
11818;DHT22;5966;52.402;5.322;2023-03-03T16:45:31;6.60;99.90
11818;DHT22;5966;52.402;5.322;2023-03-03T16:48:19;6.60;99.90
11818;DHT22;5966;52.402;5.322;2023-03-03T16:51:02;6.60;99.90
11818;DHT22;5966;52.402;5.322;2023-03-03T16:53:45;6.60;99.90
11818;DHT22;5966;52.402;5.322;2023-03-03T16:56:19;6.60;99.90
11818;DHT22;5966;52.402;5.322;2023-03-03T16:59:01;6.60;99.90
11818;DHT22;5966;52.402;5.322;2023-03-03T17:01:38;6.50;99.90
11818;DHT22;5966;52.402;5.322;2023-03-03T17:04:14;6.50;99.90
11818;DHT22;5966;52.402;5.322;2023-03-03T17:06:49;6.50;99.90